sensor_id;sensor_type;location;lat;lon;timestamp;P1;durP1;ratioP1;P2;durP2;ratioP2
44046;SDS011;29713;-33.888;151.150;2023-11-21T00:00:03;1.38;;;0.57;;
44046;SDS011;29713;-33.888;151.150;2023-11-21T00:02:38;1.60;;;0.70;;
44046;SDS011;29713;-33.888;151.150;2023-11-21T00:05:10;0.75;;;0.47;;
44046;SDS011;29713;-33.888;151.150;2023-11-21T00:07:40;0.77;;;0.50;;
44046;SDS011;29713;-33.888;151.150;2023-11-21T00:10:08;1.27;;;0.40;;
44046;SDS011;29713;-33.888;151.150;2023-11-21T00:12:37;1.35;;;0.40;;
44046;SDS011;29713;-33.888;151.150;2023-11-21T00:15:07;1.10;;;0.50;;
44046;SDS011;29713;-33.888;151.150;2023-11-21T00:17:38;1.08;;;0.32;;
44046;SDS011;29713;-33.888;151.150;2023-11-21T00:20:06;1.20;;;0.50;;
44046;SDS011;29713;-33.888;151.150;2023-11-21T00:22:34;1.30;;;0.45;;
44046;SDS011;29713;-33.888;151.150;2023-11-21T00:25:02;1.00;;;0.50;;
44046;SDS011;29713;-33.888;151.150;2023-11-21T00:27:35;1.80;;;0.60;;
44046;SDS011;29713;-33.888;151.150;2023-11-21T00:30:03;0.90;;;0.30;;
44046;SDS011;29713;-33.888;151.150;2023-11-21T00:32:32;0.60;;;0.30;;
44046;SDS011;29713;-33.888;151.150;2023-11-21T00:34:59;0.98;;;0.45;;
44046;SDS011;29713;-33.888;151.150;2023-11-21T00:37:26;0.80;;;0.40;;
44046;SDS011;29713;-33.888;151.150;2023-11-21T00:39:54;0.60;;;0.20;;
44046;SDS011;29713;-33.888;151.150;2023-11-21T00:42:22;0.70;;;0.30;;
44046;SDS011;29713;-33.888;151.150;2023-11-21T00:44:49;0.73;;;0.30;;
44046;SDS011;29713;-33.888;151.150;2023-11-21T00:47:17;0.40;;;0.30;;
44046;SDS011;29713;-33.888;151.150;2023-11-21T00:49:44;0.40;;;0.30;;
44046;SDS011;29713;-33.888;151.150;2023-11-21T00:52:11;0.30;;;0.20;;
44046;SDS011;29713;-33.888;151.150;2023-11-21T00:54:39;0.93;;;0.20;;
44046;SDS011;29713;-33.888;151.150;2023-11-21T00:57:06;0.68;;;0.40;;
44046;SDS011;29713;-33.888;151.150;2023-11-21T00:59:34;0.83;;;0.30;;
44046;SDS011;29713;-33.888;151.150;2023-11-21T01:02:01;0.32;;;0.32;;
44046;SDS011;29713;-33.888;151.150;2023-11-21T01:04:30;0.80;;;0.70;;
44046;SDS011;29713;-33.888;151.150;2023-11-21T01:07:00;1.10;;;0.60;;
44046;SDS011;29713;-33.888;151.150;2023-11-21T01:09:28;1.00;;;0.50;;
44046;SDS011;29713;-33.888;151.150;2023-11-21T01:11:55;0.70;;;0.50;;
44046;SDS011;29713;-33.888;151.150;2023-11-21T01:14:23;0.50;;;0.30;;
44046;SDS011;29713;-33.888;151.150;2023-11-21T01:16:52;0.40;;;0.35;;
44046;SDS011;29713;-33.888;151.150;2023-11-21T01:19:20;0.22;;;0.17;;
44046;SDS011;29713;-33.888;151.150;2023-11-21T01:21:47;0.57;;;0.20;;
44046;SDS011;29713;-33.888;151.150;2023-11-21T01:24:15;0.65;;;0.30;;
44046;SDS011;29713;-33.888;151.150;2023-11-21T01:26:42;0.35;;;0.20;;
44046;SDS011;29713;-33.888;151.150;2023-11-21T01:29:12;0.80;;;0.30;;
44046;SDS011;29713;-33.888;151.150;2023-11-21T01:31:40;0.40;;;0.30;;
44046;SDS011;29713;-33.888;151.150;2023-11-21T01:34:08;0.38;;;0.20;;
44046;SDS011;29713;-33.888;151.150;2023-11-21T01:36:35;0.85;;;0.22;;
44046;SDS011;29713;-33.888;151.150;2023-11-21T01:39:03;0.40;;;0.30;;
44046;SDS011;29713;-33.888;151.150;2023-11-21T01:41:34;0.35;;;0.25;;
44046;SDS011;29713;-33.888;151.150;2023-11-21T01:44:01;0.55;;;0.20;;
44046;SDS011;29713;-33.888;151.150;2023-11-21T01:46:35;0.50;;;0.20;;
44046;SDS011;29713;-33.888;151.150;2023-11-21T01:49:03;0.20;;;0.17;;
44046;SDS011;29713;-33.888;151.150;2023-11-21T01:51:31;0.10;;;0.10;;
44046;SDS011;29713;-33.888;151.150;2023-11-21T01:53:59;0.00;;;0.00;;
44046;SDS011;29713;-33.888;151.150;2023-11-21T01:56:27;0.77;;;0.15;;
44046;SDS011;29713;-33.888;151.150;2023-11-21T01:58:56;0.60;;;0.17;;
44046;SDS011;29713;-33.888;151.150;2023-11-21T02:01:27;0.30;;;0.23;;
44046;SDS011;29713;-33.888;151.150;2023-11-21T02:03:54;0.20;;;0.10;;
44046;SDS011;29713;-33.888;151.150;2023-11-21T02:06:21;0.63;;;0.20;;
44046;SDS011;29713;-33.888;151.150;2023-11-21T02:08:50;1.02;;;0.20;;
44046;SDS011;29713;-33.888;151.150;2023-11-21T02:11:17;0.47;;;0.28;;
44046;SDS011;29713;-33.888;151.150;2023-11-21T02:13:45;0.90;;;0.30;;
44046;SDS011;29713;-33.888;151.150;2023-11-21T02:16:12;0.63;;;0.20;;
44046;SDS011;29713;-33.888;151.150;2023-11-21T02:18:40;0.60;;;0.30;;
44046;SDS011;29713;-33.888;151.150;2023-11-21T02:21:07;0.65;;;0.30;;
44046;SDS011;29713;-33.888;151.150;2023-11-21T02:23:35;1.20;;;0.30;;
44046;SDS011;29713;-33.888;151.150;2023-11-21T02:26:07;0.40;;;0.20;;
44046;SDS011;29713;-33.888;151.150;2023-11-21T02:28:35;0.83;;;0.40;;
44046;SDS011;29713;-33.888;151.150;2023-11-21T02:31:04;0.82;;;0.40;;
44046;SDS011;29713;-33.888;151.150;2023-11-21T02:33:33;1.33;;;0.40;;
44046;SDS011;29713;-33.888;151.150;2023-11-21T02:36:01;0.77;;;0.20;;
44046;SDS011;29713;-33.888;151.150;2023-11-21T02:38:29;0.20;;;0.10;;
44046;SDS011;29713;-33.888;151.150;2023-11-21T02:40:57;0.80;;;0.30;;
44046;SDS011;29713;-33.888;151.150;2023-11-21T02:43:27;1.67;;;0.55;;
44046;SDS011;29713;-33.888;151.150;2023-11-21T02:45:55;0.82;;;0.35;;
44046;SDS011;29713;-33.888;151.150;2023-11-21T02:48:22;1.30;;;0.40;;
44046;SDS011;29713;-33.888;151.150;2023-11-21T02:50:51;2.70;;;0.80;;
44046;SDS011;29713;-33.888;151.150;2023-11-21T02:53:18;2.07;;;0.47;;
44046;SDS011;29713;-33.888;151.150;2023-11-21T02:55:46;2.30;;;0.80;;
44046;SDS011;29713;-33.888;151.150;2023-11-21T02:58:13;1.70;;;0.70;;
44046;SDS011;29713;-33.888;151.150;2023-11-21T03:00:40;1.50;;;0.60;;
44046;SDS011;29713;-33.888;151.150;2023-11-21T03:03:08;1.23;;;0.50;;
44046;SDS011;29713;-33.888;151.150;2023-11-21T03:05:40;3.10;;;0.70;;
44046;SDS011;29713;-33.888;151.150;2023-11-21T03:08:07;2.13;;;0.70;;
44046;SDS011;29713;-33.888;151.150;2023-11-21T03:10:34;1.23;;;0.50;;
44046;SDS011;29713;-33.888;151.150;2023-11-21T03:13:02;2.85;;;0.60;;
44046;SDS011;29713;-33.888;151.150;2023-11-21T03:15:30;1.80;;;0.55;;
44046;SDS011;29713;-33.888;151.150;2023-11-21T03:17:58;0.63;;;0.30;;
44046;SDS011;29713;-33.888;151.150;2023-11-21T03:20:25;2.90;;;0.63;;
44046;SDS011;29713;-33.888;151.150;2023-11-21T03:22:53;1.35;;;0.60;;
44046;SDS011;29713;-33.888;151.150;2023-11-21T03:25:20;1.90;;;0.50;;
44046;SDS011;29713;-33.888;151.150;2023-11-21T03:27:49;2.15;;;0.60;;
44046;SDS011;29713;-33.888;151.150;2023-11-21T03:30:16;2.17;;;0.60;;
44046;SDS011;29713;-33.888;151.150;2023-11-21T03:32:44;1.33;;;0.63;;
44046;SDS011;29713;-33.888;151.150;2023-11-21T03:35:11;1.93;;;0.50;;
44046;SDS011;29713;-33.888;151.150;2023-11-21T03:37:39;3.15;;;0.63;;
44046;SDS011;29713;-33.888;151.150;2023-11-21T03:40:10;2.10;;;0.77;;
44046;SDS011;29713;-33.888;151.150;2023-11-21T03:42:38;1.98;;;0.60;;
44046;SDS011;29713;-33.888;151.150;2023-11-21T03:45:06;1.97;;;0.50;;
44046;SDS011;29713;-33.888;151.150;2023-11-21T03:47:34;1.58;;;0.70;;
44046;SDS011;29713;-33.888;151.150;2023-11-21T03:50:01;2.70;;;0.82;;
44046;SDS011;29713;-33.888;151.150;2023-11-21T03:52:29;2.25;;;0.60;;
44046;SDS011;29713;-33.888;151.150;2023-11-21T03:54:56;2.38;;;0.70;;
44046;SDS011;29713;-33.888;151.150;2023-11-21T03:57:24;2.42;;;0.73;;
44046;SDS011;29713;-33.888;151.150;2023-11-21T03:59:53;2.00;;;0.70;;
44046;SDS011;29713;-33.888;151.150;2023-11-21T04:02:20;3.20;;;0.70;;
44046;SDS011;29713;-33.888;151.150;2023-11-21T04:04:48;2.50;;;0.80;;
44046;SDS011;29713;-33.888;151.150;2023-11-21T04:07:15;1.70;;;0.60;;
44046;SDS011;29713;-33.888;151.150;2023-11-21T04:09:43;2.17;;;0.60;;
44046;SDS011;29713;-33.888;151.150;2023-11-21T04:12:10;2.90;;;0.57;;
44046;SDS011;29713;-33.888;151.150;2023-11-21T04:14:38;1.88;;;0.60;;
44046;SDS011;29713;-33.888;151.150;2023-11-21T04:17:05;1.65;;;0.47;;
44046;SDS011;29713;-33.888;151.150;2023-11-21T04:19:32;2.75;;;0.70;;
44046;SDS011;29713;-33.888;151.150;2023-11-21T04:22:00;1.73;;;0.47;;
44046;SDS011;29713;-33.888;151.150;2023-11-21T04:24:27;1.67;;;0.60;;
44046;SDS011;29713;-33.888;151.150;2023-11-21T04:26:54;1.70;;;0.57;;
44046;SDS011;29713;-33.888;151.150;2023-11-21T04:29:22;1.07;;;0.50;;
44046;SDS011;29713;-33.888;151.150;2023-11-21T04:31:52;2.85;;;0.70;;
44046;SDS011;29713;-33.888;151.150;2023-11-21T04:34:19;2.17;;;0.60;;
44046;SDS011;29713;-33.888;151.150;2023-11-21T04:36:47;1.95;;;0.50;;
44046;SDS011;29713;-33.888;151.150;2023-11-21T04:39:15;2.38;;;0.80;;
44046;SDS011;29713;-33.888;151.150;2023-11-21T04:41:43;2.05;;;0.60;;
44046;SDS011;29713;-33.888;151.150;2023-11-21T04:44:10;1.40;;;0.52;;
44046;SDS011;29713;-33.888;151.150;2023-11-21T04:46:38;2.40;;;0.70;;
44046;SDS011;29713;-33.888;151.150;2023-11-21T04:49:06;2.60;;;0.63;;
44046;SDS011;29713;-33.888;151.150;2023-11-21T04:51:33;2.70;;;0.60;;
44046;SDS011;29713;-33.888;151.150;2023-11-21T04:54:01;2.35;;;0.60;;
44046;SDS011;29713;-33.888;151.150;2023-11-21T04:56:29;3.38;;;0.70;;
44046;SDS011;29713;-33.888;151.150;2023-11-21T04:58:56;2.80;;;0.80;;
44046;SDS011;29713;-33.888;151.150;2023-11-21T05:01:23;2.47;;;0.88;;
44046;SDS011;29713;-33.888;151.150;2023-11-21T05:03:51;1.80;;;0.70;;
44046;SDS011;29713;-33.888;151.150;2023-11-21T05:06:21;2.77;;;0.70;;
44046;SDS011;29713;-33.888;151.150;2023-11-21T05:08:49;2.47;;;0.60;;
44046;SDS011;29713;-33.888;151.150;2023-11-21T05:11:25;2.10;;;0.55;;
44046;SDS011;29713;-33.888;151.150;2023-11-21T05:13:54;2.05;;;0.70;;
44046;SDS011;29713;-33.888;151.150;2023-11-21T05:16:24;2.10;;;0.50;;
44046;SDS011;29713;-33.888;151.150;2023-11-21T05:18:54;2.03;;;0.70;;
44046;SDS011;29713;-33.888;151.150;2023-11-21T05:21:26;2.35;;;0.63;;
44046;SDS011;29713;-33.888;151.150;2023-11-21T05:23:56;2.30;;;0.57;;
44046;SDS011;29713;-33.888;151.150;2023-11-21T05:26:26;2.67;;;0.60;;
44046;SDS011;29713;-33.888;151.150;2023-11-21T05:28:53;2.87;;;0.70;;
44046;SDS011;29713;-33.888;151.150;2023-11-21T05:31:21;2.38;;;0.80;;
44046;SDS011;29713;-33.888;151.150;2023-11-21T05:33:48;2.67;;;0.70;;
44046;SDS011;29713;-33.888;151.150;2023-11-21T05:36:15;2.42;;;0.73;;
44046;SDS011;29713;-33.888;151.150;2023-11-21T05:38:43;2.63;;;0.70;;
44046;SDS011;29713;-33.888;151.150;2023-11-21T05:41:11;1.48;;;0.70;;
44046;SDS011;29713;-33.888;151.150;2023-11-21T05:43:39;2.60;;;0.80;;
44046;SDS011;29713;-33.888;151.150;2023-11-21T05:46:06;3.45;;;0.80;;
44046;SDS011;29713;-33.888;151.150;2023-11-21T05:48:34;2.90;;;0.70;;
44046;SDS011;29713;-33.888;151.150;2023-11-21T05:51:04;2.30;;;0.70;;
44046;SDS011;29713;-33.888;151.150;2023-11-21T05:53:32;2.30;;;0.70;;
44046;SDS011;29713;-33.888;151.150;2023-11-21T05:56:00;1.95;;;0.80;;
44046;SDS011;29713;-33.888;151.150;2023-11-21T05:58:29;2.97;;;0.73;;
44046;SDS011;29713;-33.888;151.150;2023-11-21T06:00:56;2.83;;;0.75;;
44046;SDS011;29713;-33.888;151.150;2023-11-21T06:03:24;3.40;;;0.90;;
44046;SDS011;29713;-33.888;151.150;2023-11-21T06:05:51;1.65;;;0.60;;
44046;SDS011;29713;-33.888;151.150;2023-11-21T06:08:20;2.80;;;0.70;;
44046;SDS011;29713;-33.888;151.150;2023-11-21T06:10:48;2.28;;;0.65;;
44046;SDS011;29713;-33.888;151.150;2023-11-21T06:13:16;3.20;;;0.67;;
44046;SDS011;29713;-33.888;151.150;2023-11-21T06:15:50;3.30;;;0.80;;
44046;SDS011;29713;-33.888;151.150;2023-11-21T06:18:18;3.80;;;0.80;;
44046;SDS011;29713;-33.888;151.150;2023-11-21T06:20:46;2.50;;;0.90;;
44046;SDS011;29713;-33.888;151.150;2023-11-21T06:23:15;4.15;;;1.00;;
44046;SDS011;29713;-33.888;151.150;2023-11-21T06:25:44;3.67;;;0.90;;
44046;SDS011;29713;-33.888;151.150;2023-11-21T06:28:13;2.80;;;1.00;;
44046;SDS011;29713;-33.888;151.150;2023-11-21T06:30:52;3.05;;;0.70;;
44046;SDS011;29713;-33.888;151.150;2023-11-21T06:33:25;3.17;;;0.80;;
44046;SDS011;29713;-33.888;151.150;2023-11-21T06:35:55;2.25;;;0.70;;
44046;SDS011;29713;-33.888;151.150;2023-11-21T06:38:37;2.47;;;0.83;;
44046;SDS011;29713;-33.888;151.150;2023-11-21T06:41:06;2.55;;;0.80;;
44046;SDS011;29713;-33.888;151.150;2023-11-21T06:43:34;2.40;;;0.63;;
44046;SDS011;29713;-33.888;151.150;2023-11-21T06:46:01;4.10;;;1.02;;
44046;SDS011;29713;-33.888;151.150;2023-11-21T06:48:30;2.25;;;0.73;;
44046;SDS011;29713;-33.888;151.150;2023-11-21T06:50:57;3.80;;;0.90;;
44046;SDS011;29713;-33.888;151.150;2023-11-21T06:53:25;1.80;;;0.77;;
44046;SDS011;29713;-33.888;151.150;2023-11-21T06:55:53;3.53;;;1.30;;
44046;SDS011;29713;-33.888;151.150;2023-11-21T06:58:21;2.13;;;0.90;;
44046;SDS011;29713;-33.888;151.150;2023-11-21T07:00:50;2.22;;;1.00;;
44046;SDS011;29713;-33.888;151.150;2023-11-21T07:03:18;4.50;;;1.17;;
44046;SDS011;29713;-33.888;151.150;2023-11-21T07:05:49;4.22;;;1.00;;
44046;SDS011;29713;-33.888;151.150;2023-11-21T07:08:16;2.60;;;0.80;;
44046;SDS011;29713;-33.888;151.150;2023-11-21T07:10:44;2.72;;;1.13;;
44046;SDS011;29713;-33.888;151.150;2023-11-21T07:13:13;4.07;;;1.40;;
44046;SDS011;29713;-33.888;151.150;2023-11-21T07:15:41;3.63;;;1.17;;
44046;SDS011;29713;-33.888;151.150;2023-11-21T07:18:09;4.63;;;1.10;;
44046;SDS011;29713;-33.888;151.150;2023-11-21T07:20:37;3.67;;;1.30;;
44046;SDS011;29713;-33.888;151.150;2023-11-21T07:23:05;5.15;;;1.20;;
44046;SDS011;29713;-33.888;151.150;2023-11-21T07:25:32;3.88;;;1.30;;
44046;SDS011;29713;-33.888;151.150;2023-11-21T07:28:01;2.42;;;1.17;;
44046;SDS011;29713;-33.888;151.150;2023-11-21T07:30:31;6.63;;;2.47;;
44046;SDS011;29713;-33.888;151.150;2023-11-21T07:32:58;4.95;;;2.08;;
44046;SDS011;29713;-33.888;151.150;2023-11-21T07:35:26;3.75;;;1.10;;
44046;SDS011;29713;-33.888;151.150;2023-11-21T07:37:58;5.45;;;1.55;;
44046;SDS011;29713;-33.888;151.150;2023-11-21T07:40:26;2.80;;;1.27;;
44046;SDS011;29713;-33.888;151.150;2023-11-21T07:42:54;4.80;;;1.15;;
44046;SDS011;29713;-33.888;151.150;2023-11-21T07:45:23;6.32;;;3.83;;
44046;SDS011;29713;-33.888;151.150;2023-11-21T07:47:57;7.53;;;4.57;;
44046;SDS011;29713;-33.888;151.150;2023-11-21T07:50:30;4.07;;;1.27;;
44046;SDS011;29713;-33.888;151.150;2023-11-21T07:53:04;3.07;;;1.00;;
44046;SDS011;29713;-33.888;151.150;2023-11-21T07:55:41;3.78;;;1.70;;
44046;SDS011;29713;-33.888;151.150;2023-11-21T07:58:10;3.33;;;1.00;;
44046;SDS011;29713;-33.888;151.150;2023-11-21T08:00:38;5.00;;;1.70;;
44046;SDS011;29713;-33.888;151.150;2023-11-21T08:03:05;3.85;;;1.13;;
44046;SDS011;29713;-33.888;151.150;2023-11-21T08:05:33;3.25;;;1.10;;
44046;SDS011;29713;-33.888;151.150;2023-11-21T08:08:00;4.65;;;2.25;;
44046;SDS011;29713;-33.888;151.150;2023-11-21T08:10:28;3.45;;;1.48;;
44046;SDS011;29713;-33.888;151.150;2023-11-21T08:12:55;3.15;;;1.00;;
44046;SDS011;29713;-33.888;151.150;2023-11-21T08:15:24;4.47;;;0.60;;
44046;SDS011;29713;-33.888;151.150;2023-11-21T08:17:51;2.30;;;0.80;;
44046;SDS011;29713;-33.888;151.150;2023-11-21T08:20:19;3.20;;;0.93;;
44046;SDS011;29713;-33.888;151.150;2023-11-21T08:22:48;2.93;;;0.90;;
44046;SDS011;29713;-33.888;151.150;2023-11-21T08:25:16;1.75;;;0.60;;
44046;SDS011;29713;-33.888;151.150;2023-11-21T08:27:45;2.30;;;0.80;;
44046;SDS011;29713;-33.888;151.150;2023-11-21T08:30:13;2.75;;;0.90;;
44046;SDS011;29713;-33.888;151.150;2023-11-21T08:32:42;3.28;;;0.75;;
44046;SDS011;29713;-33.888;151.150;2023-11-21T08:35:10;1.80;;;0.70;;
44046;SDS011;29713;-33.888;151.150;2023-11-21T08:37:37;3.27;;;0.80;;
44046;SDS011;29713;-33.888;151.150;2023-11-21T08:40:05;2.22;;;0.77;;
44046;SDS011;29713;-33.888;151.150;2023-11-21T08:42:35;2.35;;;0.80;;
44046;SDS011;29713;-33.888;151.150;2023-11-21T08:45:03;4.18;;;1.50;;
44046;SDS011;29713;-33.888;151.150;2023-11-21T08:47:34;2.15;;;1.10;;
44046;SDS011;29713;-33.888;151.150;2023-11-21T08:50:02;2.00;;;0.90;;
44046;SDS011;29713;-33.888;151.150;2023-11-21T08:52:31;5.00;;;2.55;;
44046;SDS011;29713;-33.888;151.150;2023-11-21T08:54:59;3.47;;;1.35;;
44046;SDS011;29713;-33.888;151.150;2023-11-21T08:57:36;4.07;;;1.23;;
44046;SDS011;29713;-33.888;151.150;2023-11-21T09:00:06;1.95;;;0.85;;
44046;SDS011;29713;-33.888;151.150;2023-11-21T09:02:41;4.03;;;0.88;;
44046;SDS011;29713;-33.888;151.150;2023-11-21T09:05:09;5.20;;;1.20;;
44046;SDS011;29713;-33.888;151.150;2023-11-21T09:07:38;3.88;;;1.08;;
44046;SDS011;29713;-33.888;151.150;2023-11-21T09:10:07;5.75;;;1.08;;
44046;SDS011;29713;-33.888;151.150;2023-11-21T09:12:35;4.95;;;1.05;;
44046;SDS011;29713;-33.888;151.150;2023-11-21T09:15:06;5.13;;;1.08;;
44046;SDS011;29713;-33.888;151.150;2023-11-21T09:17:35;4.03;;;1.10;;
44046;SDS011;29713;-33.888;151.150;2023-11-21T09:20:03;4.30;;;1.08;;
44046;SDS011;29713;-33.888;151.150;2023-11-21T09:22:31;5.05;;;1.17;;
44046;SDS011;29713;-33.888;151.150;2023-11-21T09:24:59;3.40;;;0.93;;
44046;SDS011;29713;-33.888;151.150;2023-11-21T09:27:26;3.35;;;1.20;;
44046;SDS011;29713;-33.888;151.150;2023-11-21T09:29:54;6.70;;;1.10;;
44046;SDS011;29713;-33.888;151.150;2023-11-21T09:32:21;3.78;;;1.17;;
44046;SDS011;29713;-33.888;151.150;2023-11-21T09:34:49;4.85;;;1.15;;
44046;SDS011;29713;-33.888;151.150;2023-11-21T09:37:17;4.18;;;1.00;;
44046;SDS011;29713;-33.888;151.150;2023-11-21T09:39:44;3.90;;;1.13;;
44046;SDS011;29713;-33.888;151.150;2023-11-21T09:42:15;3.40;;;0.82;;
44046;SDS011;29713;-33.888;151.150;2023-11-21T09:45:05;5.23;;;1.07;;
44046;SDS011;29713;-33.888;151.150;2023-11-21T09:47:46;3.28;;;0.90;;
44046;SDS011;29713;-33.888;151.150;2023-11-21T09:50:14;3.80;;;0.95;;
44046;SDS011;29713;-33.888;151.150;2023-11-21T09:55:42;3.00;;;0.70;;
44046;SDS011;29713;-33.888;151.150;2023-11-21T09:58:10;2.13;;;0.70;;
44046;SDS011;29713;-33.888;151.150;2023-11-21T10:00:43;2.67;;;0.70;;
44046;SDS011;29713;-33.888;151.150;2023-11-21T10:03:15;2.63;;;0.70;;
44046;SDS011;29713;-33.888;151.150;2023-11-21T10:05:43;3.17;;;0.80;;
44046;SDS011;29713;-33.888;151.150;2023-11-21T10:08:17;2.92;;;0.82;;
44046;SDS011;29713;-33.888;151.150;2023-11-21T10:10:46;2.53;;;0.80;;
44046;SDS011;29713;-33.888;151.150;2023-11-21T10:13:19;3.20;;;0.80;;
44046;SDS011;29713;-33.888;151.150;2023-11-21T10:15:51;3.75;;;0.73;;
44046;SDS011;29713;-33.888;151.150;2023-11-21T10:18:18;4.38;;;0.80;;
44046;SDS011;29713;-33.888;151.150;2023-11-21T10:20:48;3.97;;;0.93;;
44046;SDS011;29713;-33.888;151.150;2023-11-21T10:23:19;4.10;;;0.95;;
44046;SDS011;29713;-33.888;151.150;2023-11-21T10:25:48;2.58;;;0.70;;
44046;SDS011;29713;-33.888;151.150;2023-11-21T10:28:17;2.88;;;0.70;;
44046;SDS011;29713;-33.888;151.150;2023-11-21T10:30:46;3.20;;;1.00;;
44046;SDS011;29713;-33.888;151.150;2023-11-21T10:33:13;2.35;;;0.70;;
44046;SDS011;29713;-33.888;151.150;2023-11-21T10:38:17;2.15;;;0.80;;
44046;SDS011;29713;-33.888;151.150;2023-11-21T10:40:46;3.88;;;0.75;;
44046;SDS011;29713;-33.888;151.150;2023-11-21T10:43:15;2.95;;;0.70;;
44046;SDS011;29713;-33.888;151.150;2023-11-21T10:45:43;3.28;;;0.80;;
44046;SDS011;29713;-33.888;151.150;2023-11-21T10:48:13;4.93;;;0.90;;
44046;SDS011;29713;-33.888;151.150;2023-11-21T10:50:42;2.58;;;0.80;;
44046;SDS011;29713;-33.888;151.150;2023-11-21T10:53:12;4.18;;;0.90;;
44046;SDS011;29713;-33.888;151.150;2023-11-21T10:55:40;2.90;;;0.63;;
44046;SDS011;29713;-33.888;151.150;2023-11-21T10:58:09;3.95;;;0.90;;
44046;SDS011;29713;-33.888;151.150;2023-11-21T11:00:39;2.70;;;0.80;;
44046;SDS011;29713;-33.888;151.150;2023-11-21T11:03:07;2.13;;;0.50;;
44046;SDS011;29713;-33.888;151.150;2023-11-21T11:05:40;3.90;;;1.00;;
44046;SDS011;29713;-33.888;151.150;2023-11-21T11:08:16;4.85;;;0.85;;
44046;SDS011;29713;-33.888;151.150;2023-11-21T11:10:51;2.03;;;0.60;;
44046;SDS011;29713;-33.888;151.150;2023-11-21T11:13:19;2.42;;;0.70;;
44046;SDS011;29713;-33.888;151.150;2023-11-21T11:15:47;3.30;;;0.90;;
44046;SDS011;29713;-33.888;151.150;2023-11-21T11:18:15;2.20;;;0.70;;
44046;SDS011;29713;-33.888;151.150;2023-11-21T11:20:43;3.08;;;0.70;;
44046;SDS011;29713;-33.888;151.150;2023-11-21T11:28:38;2.53;;;0.60;;
44046;SDS011;29713;-33.888;151.150;2023-11-21T11:33:57;1.45;;;0.55;;
44046;SDS011;29713;-33.888;151.150;2023-11-21T11:36:54;2.35;;;0.80;;
44046;SDS011;29713;-33.888;151.150;2023-11-21T11:39:29;3.38;;;0.85;;
44046;SDS011;29713;-33.888;151.150;2023-11-21T11:42:06;4.07;;;0.70;;
44046;SDS011;29713;-33.888;151.150;2023-11-21T11:49:57;3.45;;;0.80;;
44046;SDS011;29713;-33.888;151.150;2023-11-21T11:52:47;2.47;;;0.70;;
44046;SDS011;29713;-33.888;151.150;2023-11-21T11:55:21;4.32;;;0.90;;
44046;SDS011;29713;-33.888;151.150;2023-11-21T11:57:50;2.72;;;0.90;;
44046;SDS011;29713;-33.888;151.150;2023-11-21T12:02:59;1.80;;;0.70;;
44046;SDS011;29713;-33.888;151.150;2023-11-21T12:05:31;3.20;;;0.70;;
44046;SDS011;29713;-33.888;151.150;2023-11-21T12:08:11;2.25;;;0.60;;
44046;SDS011;29713;-33.888;151.150;2023-11-21T12:10:38;3.83;;;0.88;;
44046;SDS011;29713;-33.888;151.150;2023-11-21T12:13:07;2.63;;;0.80;;
44046;SDS011;29713;-33.888;151.150;2023-11-21T12:15:36;2.58;;;0.70;;
44046;SDS011;29713;-33.888;151.150;2023-11-21T12:18:04;4.00;;;0.85;;
44046;SDS011;29713;-33.888;151.150;2023-11-21T12:20:31;3.27;;;0.90;;
44046;SDS011;29713;-33.888;151.150;2023-11-21T12:23:04;4.35;;;0.88;;
44046;SDS011;29713;-33.888;151.150;2023-11-21T12:25:34;3.58;;;0.73;;
44046;SDS011;29713;-33.888;151.150;2023-11-21T12:28:02;2.95;;;0.82;;
44046;SDS011;29713;-33.888;151.150;2023-11-21T12:30:32;4.03;;;1.00;;
44046;SDS011;29713;-33.888;151.150;2023-11-21T12:33:01;2.35;;;0.65;;
44046;SDS011;29713;-33.888;151.150;2023-11-21T12:35:33;2.05;;;0.60;;
44046;SDS011;29713;-33.888;151.150;2023-11-21T12:38:01;2.90;;;0.77;;
44046;SDS011;29713;-33.888;151.150;2023-11-21T12:40:34;2.45;;;0.70;;
44046;SDS011;29713;-33.888;151.150;2023-11-21T12:43:02;2.53;;;0.70;;
44046;SDS011;29713;-33.888;151.150;2023-11-21T12:45:33;3.00;;;0.67;;
44046;SDS011;29713;-33.888;151.150;2023-11-21T12:48:01;3.88;;;0.93;;
44046;SDS011;29713;-33.888;151.150;2023-11-21T12:50:33;2.40;;;0.60;;
44046;SDS011;29713;-33.888;151.150;2023-11-21T12:53:06;2.30;;;0.70;;
44046;SDS011;29713;-33.888;151.150;2023-11-21T12:55:36;2.28;;;0.70;;
44046;SDS011;29713;-33.888;151.150;2023-11-21T12:58:04;3.03;;;0.60;;
44046;SDS011;29713;-33.888;151.150;2023-11-21T13:00:36;3.37;;;0.93;;
44046;SDS011;29713;-33.888;151.150;2023-11-21T13:03:11;2.53;;;0.70;;
44046;SDS011;29713;-33.888;151.150;2023-11-21T13:05:43;1.70;;;0.70;;
44046;SDS011;29713;-33.888;151.150;2023-11-21T13:08:12;3.13;;;0.85;;
44046;SDS011;29713;-33.888;151.150;2023-11-21T13:10:45;3.25;;;0.90;;
44046;SDS011;29713;-33.888;151.150;2023-11-21T13:13:14;2.40;;;0.57;;
44046;SDS011;29713;-33.888;151.150;2023-11-21T13:15:54;3.92;;;1.02;;
44046;SDS011;29713;-33.888;151.150;2023-11-21T13:18:31;2.50;;;0.70;;
44046;SDS011;29713;-33.888;151.150;2023-11-21T13:20:59;3.83;;;0.90;;
44046;SDS011;29713;-33.888;151.150;2023-11-21T13:23:35;2.40;;;0.80;;
44046;SDS011;29713;-33.888;151.150;2023-11-21T13:26:03;1.83;;;0.68;;
44046;SDS011;29713;-33.888;151.150;2023-11-21T13:28:32;1.70;;;0.70;;
44046;SDS011;29713;-33.888;151.150;2023-11-21T13:31:00;1.80;;;0.77;;
44046;SDS011;29713;-33.888;151.150;2023-11-21T13:33:38;2.42;;;0.73;;
44046;SDS011;29713;-33.888;151.150;2023-11-21T13:36:08;3.10;;;1.00;;
44046;SDS011;29713;-33.888;151.150;2023-11-21T13:38:36;1.83;;;0.73;;
44046;SDS011;29713;-33.888;151.150;2023-11-21T13:41:07;2.70;;;0.80;;
44046;SDS011;29713;-33.888;151.150;2023-11-21T13:43:35;4.47;;;0.93;;
44046;SDS011;29713;-33.888;151.150;2023-11-21T13:46:03;3.20;;;0.80;;
44046;SDS011;29713;-33.888;151.150;2023-11-21T13:48:40;2.17;;;0.75;;
44046;SDS011;29713;-33.888;151.150;2023-11-21T13:51:21;2.97;;;0.80;;
44046;SDS011;29713;-33.888;151.150;2023-11-21T13:53:57;2.97;;;1.05;;
44046;SDS011;29713;-33.888;151.150;2023-11-21T13:56:24;3.08;;;0.90;;
44046;SDS011;29713;-33.888;151.150;2023-11-21T13:58:54;1.77;;;0.75;;
44046;SDS011;29713;-33.888;151.150;2023-11-21T14:01:22;2.53;;;1.00;;
44046;SDS011;29713;-33.888;151.150;2023-11-21T14:03:57;2.25;;;0.90;;
44046;SDS011;29713;-33.888;151.150;2023-11-21T14:06:48;5.25;;;1.30;;
44046;SDS011;29713;-33.888;151.150;2023-11-21T14:09:20;4.97;;;1.15;;
44046;SDS011;29713;-33.888;151.150;2023-11-21T14:11:49;2.83;;;1.07;;
44046;SDS011;29713;-33.888;151.150;2023-11-21T14:14:18;2.78;;;1.10;;
44046;SDS011;29713;-33.888;151.150;2023-11-21T14:16:47;2.70;;;1.20;;
44046;SDS011;29713;-33.888;151.150;2023-11-21T14:19:16;2.13;;;0.90;;
44046;SDS011;29713;-33.888;151.150;2023-11-21T14:21:44;3.05;;;1.10;;
44046;SDS011;29713;-33.888;151.150;2023-11-21T14:24:13;3.95;;;1.10;;
44046;SDS011;29713;-33.888;151.150;2023-11-21T14:26:44;3.20;;;1.10;;
44046;SDS011;29713;-33.888;151.150;2023-11-21T14:29:16;2.60;;;1.10;;
44046;SDS011;29713;-33.888;151.150;2023-11-21T14:31:49;2.55;;;1.00;;
44046;SDS011;29713;-33.888;151.150;2023-11-21T14:34:19;2.88;;;1.23;;
44046;SDS011;29713;-33.888;151.150;2023-11-21T14:36:47;2.63;;;1.30;;
44046;SDS011;29713;-33.888;151.150;2023-11-21T14:39:14;2.53;;;1.13;;
44046;SDS011;29713;-33.888;151.150;2023-11-21T14:41:49;2.85;;;1.10;;